Terminal Aerodrome Forecast
Issued by NWS Louisville, KY

Home | Current Version | Previous Version | Text Only | Print | Product List | Glossary On
Versions: 1 2 3 4 5 6 7 8 9 10 11 12 13 14 15
000
FTUS43 KLMK 050500
TAFLEX
TAF
KLEX 050536Z 0506/0606 VRB04KT 5SM BR BKN120
     FM050900 VRB03KT 4SM BR BKN050
     FM051400 VRB04KT P6SM VCSH BKN040
     FM052100 04006KT P6SM SCT040 BKN080=

USA.gov is the U.S. government's official web portal to all federal, state and local government web resources and services.